ADDS METAR Data INFO
IDs: Format: Raw Decoded Include TAF

Data at: 0752 UTC 17 Oct 2017

KAXV 170732Z AUTO 00000KT 10SM CLR 04/04 A3030 RMK AO2
KAXV 170712Z AUTO 00000KT 10SM CLR 04/04 A3030 RMK AO2
KAXV 170652Z AUTO 00000KT 10SM CLR 05/05 A3030 RMK AO2
KAXV 170632Z AUTO 00000KT 10SM CLR 05/05 A3030 RMK AO2
KAXV 170611Z AUTO 00000KT 7SM CLR 04/04 A3029 RMK AO2
KAXV 170552Z AUTO 00000KT 7SM CLR 05/05 A3029 RMK AO2
KAXV 170532Z AUTO 00000KT 10SM CLR 05/05 A3029 RMK AO2
KAXV 170512Z AUTO 17004KT 10SM CLR 06/06 A3029 RMK AO2
KAXV 170452Z AUTO 16003KT 10SM CLR 05/05 A3029 RMK AO2
KAXV 170431Z AUTO 17004KT 10SM CLR 05/05 A3030 RMK AO2
KAXV 170412Z AUTO 00000KT 7SM CLR 05/05 A3030 RMK AO2
KAXV 170352Z AUTO 00000KT 10SM CLR 06/06 A3030 RMK AO2
KAXV 170331Z AUTO 00000KT 7SM CLR 05/05 A3030 RMK AO2
KAXV 170312Z AUTO 00000KT 7SM CLR 06/06 A3030 RMK AO2
KAXV 170252Z AUTO 00000KT 7SM CLR 06/06 A3030 RMK AO2
KAXV 170232Z AUTO 00000KT 10SM CLR 06/06 A3030 RMK AO2
KAXV 170212Z AUTO 00000KT 7SM CLR 06/06 A3030 RMK AO2
KAXV 170151Z AUTO 00000KT 7SM CLR 06/06 A3030 RMK AO2
KAXV 170132Z AUTO 00000KT 7SM CLR 07/07 A3030 RMK AO2
KAXV 170112Z AUTO 00000KT 10SM CLR 07/07 A3030 RMK AO2
KAXV 170052Z AUTO 00000KT 10SM CLR 07/06 A3030 RMK AO2
KAXV 170032Z AUTO 00000KT 10SM CLR 08/06 A3030 RMK AO2
KAXV 170011Z AUTO 00000KT 10SM CLR 08/05 A3029 RMK AO2
KAXV 162352Z AUTO 00000KT 10SM CLR 09/05 A3029 RMK AO2
KAXV 162331Z AUTO 00000KT 10SM CLR 10/05 A3028 RMK AO2
KAXV 162312Z AUTO 00000KT 10SM CLR 11/05 A3029 RMK AO2
KAXV 162252Z AUTO 00000KT 10SM SCT060 12/04 A3028 RMK AO2
KAXV 162231Z AUTO 00000KT 7SM SCT060 BKN070 13/03 A3028 RMK AO2
KAXV 162212Z AUTO 00000KT 7SM OVC060 15/02 A3027 RMK AO2
KAXV 162152Z AUTO 27004KT 7SM OVC060 15/02 A3028 RMK AO2
KAXV 162132Z AUTO 25005KT 10SM BKN070 14/02 A3028 RMK AO2
KAXV 162112Z AUTO 25008KT 7SM SCT070 15/03 A3028 RMK AO2
KAXV 162051Z AUTO 25007KT 10SM SCT050 SCT070 15/02 A3028 RMK AO2
KAXV 162032Z AUTO 25006KT 220V280 10SM SCT070 15/03 A3028 RMK AO2
KAXV 162012Z AUTO 25005KT 7SM SCT049 BKN070 14/03 A3029 RMK AO2
KAXV 161952Z AUTO 30007KT 240V320 7SM BKN049 OVC060 15/02 A3029 RMK AO2
KAXV 161932Z AUTO 30006KT 250V310 10SM BKN047 SCT060 BKN070 15/03 A3029 RMK AO2
KAXV 161911Z AUTO 32005KT 7SM SCT070 15/03 A3029 RMK AO2
KAXV 161852Z AUTO 00000KT 10SM SCT049 SCT055 SCT070 13/04 A3029 RMK AO2
KAXV 161832Z AUTO 31003KT 10SM SCT049 BKN060 BKN070 13/03 A3030 RMK AO2
KAXV 161812Z AUTO 35005KT 10SM SCT039 BKN055 OVC070 13/02 A3030 RMK AO2
KAXV 161752Z AUTO 26007KT 7SM BKN041 BKN050 BKN055 13/04 A3030 RMK AO2
KAXV 161732Z AUTO 00000KT 7SM SCT055 13/05 A3031 RMK AO2
KAXV 161712Z AUTO 30005KT 7SM SCT037 SCT044 BKN055 12/05 A3032 RMK AO2
KAXV 161651Z AUTO 28005KT 5SM HZ SCT031 SCT044 BKN060 13/05 A3032 RMK AO2
KAXV 161632Z AUTO 28006KT 250V320 10SM SCT029 SCT036 SCT045 13/06 A3032 RMK AO2
KAXV 161612Z AUTO 33004KT 7SM SCT026 BKN034 BKN041 12/07 A3033 RMK AO2
KAXV 161552Z AUTO 30003KT 10SM SCT022 BKN028 BKN036 12/07 A3033 RMK AO2
KAXV 161532Z AUTO 30003KT 7SM BKN019 BKN025 BKN031 11/08 A3033 RMK AO2
KAXV 161511Z AUTO 29004KT 7SM BKN017 BKN023 11/08 A3032 RMK AO2
KAXV 161452Z AUTO 33003KT 7SM BKN014 10/08 A3032 RMK AO2
KAXV 161432Z AUTO 34004KT 10SM BKN014 OVC019 10/09 A3032 RMK AO2
KAXV 161412Z AUTO 35004KT 7SM BKN011 BKN016 10/09 A3032 RMK AO2
KAXV 161352Z AUTO 33004KT 10SM SCT009 SCT015 BKN046 10/10 A3031 RMK AO2
KAXV 161331Z AUTO 34004KT 7SM BKN046 OVC065 08/08 A3031 RMK AO2
KAXV 161312Z AUTO 33003KT 7SM SCT050 OVC060 08/08 A3031 RMK AO2
KAXV 161252Z AUTO 00000KT 7SM -DZ SCT044 OVC055 08/08 A3030 RMK AO2
KAXV 161232Z AUTO 30003KT 7SM OVC042 08/08 A3029 RMK AO2
KAXV 161212Z AUTO 33003KT 10SM OVC038 07/07 A3028 RMK AO2
KAXV 161151Z AUTO 34004KT 10SM BKN038 OVC050 07/07 A3028 RMK AO2
KAXV 161132Z AUTO 00000KT 10SM -DZ BKN038 OVC050 07/07 A3027 RMK AO2
KAXV 161112Z AUTO 00000KT 10SM OVC043 07/07 A3027 RMK AO2
KAXV 161052Z AUTO 00000KT 7SM BKN043 07/07 A3027 RMK AO2
KAXV 161032Z AUTO 31003KT 7SM BKN041 07/07 A3026 RMK AO2
KAXV 161012Z AUTO 00000KT 10SM OVC043 07/07 A3026 RMK AO2
KAXV 160952Z AUTO 31004KT 10SM BKN043 07/07 A3025 RMK AO2
KAXV 160931Z AUTO 30004KT 10SM SCT041 06/06 A3025 RMK AO2
KAXV 160912Z AUTO 00000KT 7SM CLR 05/05 A3024 RMK AO2
KAXV 160852Z AUTO 00000KT 7SM CLR 06/06 A3024 RMK AO2
KAXV 160832Z AUTO 00000KT 10SM CLR 06/06 A3024 RMK AO2
KAXV 160812Z AUTO 00000KT 10SM CLR 06/06 A3023 RMK AO2
KAXV 160751Z AUTO 00000KT 10SM CLR 07/07 A3023 RMK AO2
KAXV 160732Z AUTO 00000KT 7SM CLR 07/07 A3022 RMK AO2
KAXV 160712Z AUTO 00000KT 7SM CLR 06/06 A3021 RMK AO2
KAXV 160651Z AUTO 00000KT 7SM CLR 07/07 A3021 RMK AO2
KAXV 160632Z AUTO 00000KT 10SM CLR 07/07 A3021 RMK AO2
KAXV 160612Z AUTO 32003KT 10SM CLR 07/07 A3021 RMK AO2
KAXV 160552Z AUTO 32003KT 10SM CLR 08/08 A3021 RMK AO2
KAXV 160532Z AUTO 30004KT 10SM CLR 08/08 A3021 RMK AO2
KAXV 160511Z AUTO 31003KT 10SM CLR 08/08 A3020 RMK AO2
KAXV 160452Z AUTO 31003KT 10SM CLR 08/08 A3020 RMK AO2
KAXV 160432Z AUTO 31003KT 10SM CLR 08/08 A3019 RMK AO2
KAXV 160412Z AUTO 31003KT 10SM CLR 09/09 A3019 RMK AO2
KAXV 160352Z AUTO 31005KT 10SM CLR 09/09 A3019 RMK AO2
KAXV 160331Z AUTO 30005KT 10SM CLR 10/09 A3019 RMK AO2
KAXV 160312Z AUTO 31005KT 10SM CLR 10/09 A3018 RMK AO2
KAXV 160252Z AUTO 32005KT 10SM CLR 10/09 A3018 RMK AO2
KAXV 160232Z AUTO 31006KT 10SM CLR 10/09 A3017 RMK AO2
KAXV 160212Z AUTO 32009KT 10SM CLR 11/10 A3016 RMK AO2
KAXV 160151Z AUTO 32009G14KT 10SM SCT017 SCT022 SCT028 11/10 A3015 RMK AO2
KAXV 160132Z AUTO 31008KT 7SM BKN017 BKN022 OVC048 11/11 A3014 RMK AO2
KAXV 160112Z AUTO 30008KT 7SM BKN020 BKN026 OVC032 11/11 A3013 RMK AO2
KAXV 160052Z AUTO 30006KT 10SM SCT025 BKN041 OVC048 11/11 A3012 RMK AO2
KAXV 160032Z AUTO 29007KT 10SM SCT021 SCT031 OVC048 11/11 A3011 RMK AO2
KAXV 160011Z AUTO 29006KT 10SM BKN021 BKN027 BKN040 11/10 A3010 RMK AO2
KAXV 152352Z AUTO 30008G14KT 10SM OVC023 12/10 A3009 RMK AO2
KAXV 152332Z AUTO 30007G18KT 10SM BKN025 OVC029 12/09 A3009 RMK AO2
KAXV 152311Z AUTO 30009G14KT 10SM BKN029 OVC038 12/09 A3007 RMK AO2
KAXV 152252Z AUTO 29009G18KT 10SM OVC031 12/09 A3006 RMK AO2
KAXV 152232Z AUTO 29009G14KT 10SM OVC033 12/10 A3005 RMK AO2
KAXV 152212Z AUTO 29008G14KT 7SM BKN033 13/09 A3004 RMK AO2
KAXV 152152Z AUTO 29013G19KT 10SM SCT026 BKN035 13/08 A3004 RMK AO2
KAXV 152132Z AUTO 29010G21KT 10SM BKN026 BKN030 OVC035 13/10 A3003 RMK AO2
KAXV 152112Z AUTO 30013G20KT 7SM BKN030 OVC037 13/10 A3002 RMK AO2
KAXV 152051Z AUTO 28012G18KT 7SM BKN020 OVC035 13/11 A3000 RMK AO2
KAXV 152032Z AUTO 28014G20KT 250V310 7SM BKN020 OVC029 13/11 A3000 RMK AO2
KAXV 152012Z AUTO 28016G23KT 10SM BKN021 OVC031 14/12 A2999 RMK AO2